sensor_id;sensor_type;location;lat;lon;timestamp;pressure;altitude;pressure_sealevel;temperature;humidity
38612;BME280;24368;52.156;20.788;2023-11-19T00:03:47;101108.25;;;0.02;100.00
38612;BME280;24368;52.156;20.788;2023-11-19T00:08:48;101111.15;;;-0.01;100.00
38612;BME280;24368;52.156;20.788;2023-11-19T00:13:49;101124.80;;;-0.12;100.00
38612;BME280;24368;52.156;20.788;2023-11-19T00:18:50;101115.77;;;-0.15;100.00
38612;BME280;24368;52.156;20.788;2023-11-19T00:23:51;101105.95;;;-0.16;100.00
38612;BME280;24368;52.156;20.788;2023-11-19T00:28:53;101090.80;;;-0.14;100.00
38612;BME280;24368;52.156;20.788;2023-11-19T00:33:54;101091.87;;;-0.12;100.00
38612;BME280;24368;52.156;20.788;2023-11-19T00:38:55;101090.05;;;-0.10;100.00
38612;BME280;24368;52.156;20.788;2023-11-19T00:43:56;101082.21;;;-0.13;100.00
38612;BME280;24368;52.156;20.788;2023-11-19T00:48:57;101077.37;;;-0.16;100.00
38612;BME280;24368;52.156;20.788;2023-11-19T00:54:00;101062.08;;;-0.23;100.00
38612;BME280;24368;52.156;20.788;2023-11-19T00:59:01;101049.79;;;-0.23;100.00
38612;BME280;24368;52.156;20.788;2023-11-19T01:04:03;101035.88;;;-0.18;100.00
38612;BME280;24368;52.156;20.788;2023-11-19T01:09:04;101026.35;;;-0.11;100.00
38612;BME280;24368;52.156;20.788;2023-11-19T01:14:05;101024.41;;;-0.13;100.00
38612;BME280;24368;52.156;20.788;2023-11-19T01:19:06;101017.08;;;-0.20;100.00
38612;BME280;24368;52.156;20.788;2023-11-19T01:24:07;101003.09;;;-0.21;100.00
38612;BME280;24368;52.156;20.788;2023-11-19T01:29:11;101004.92;;;-0.23;100.00
38612;BME280;24368;52.156;20.788;2023-11-19T01:34:15;101013.58;;;-0.27;100.00
38612;BME280;24368;52.156;20.788;2023-11-19T01:39:16;101012.42;;;-0.28;100.00
38612;BME280;24368;52.156;20.788;2023-11-19T01:44:18;101002.89;;;-0.28;100.00
38612;BME280;24368;52.156;20.788;2023-11-19T01:49:19;100993.45;;;-0.22;100.00
38612;BME280;24368;52.156;20.788;2023-11-19T01:54:20;100984.34;;;-0.19;100.00
38612;BME280;24368;52.156;20.788;2023-11-19T01:59:23;100986.83;;;-0.17;100.00
38612;BME280;24368;52.156;20.788;2023-11-19T02:04:27;100975.62;;;-0.22;100.00
38612;BME280;24368;52.156;20.788;2023-11-19T02:09:28;100973.67;;;-0.21;100.00
38612;BME280;24368;52.156;20.788;2023-11-19T02:14:30;100967.59;;;-0.20;100.00
38612;BME280;24368;52.156;20.788;2023-11-19T02:19:32;100947.40;;;-0.18;100.00
38612;BME280;24368;52.156;20.788;2023-11-19T02:24:33;100946.23;;;-0.12;100.00
38612;BME280;24368;52.156;20.788;2023-11-19T02:29:35;100948.11;;;-0.11;100.00
38612;BME280;24368;52.156;20.788;2023-11-19T02:34:36;100943.63;;;-0.12;100.00
38612;BME280;24368;52.156;20.788;2023-11-19T02:39:37;100930.98;;;-0.19;100.00
38612;BME280;24368;52.156;20.788;2023-11-19T02:44:38;100936.88;;;-0.23;100.00
38612;BME280;24368;52.156;20.788;2023-11-19T02:49:40;100927.77;;;-0.25;100.00
38612;BME280;24368;52.156;20.788;2023-11-19T02:54:42;100906.05;;;-0.23;100.00
38612;BME280;24368;52.156;20.788;2023-11-19T02:59:43;100894.76;;;-0.18;100.00
38612;BME280;24368;52.156;20.788;2023-11-19T03:04:44;100894.23;;;-0.18;100.00
38612;BME280;24368;52.156;20.788;2023-11-19T03:09:46;100879.73;;;-0.19;100.00
38612;BME280;24368;52.156;20.788;2023-11-19T03:14:47;100865.39;;;-0.20;100.00
38612;BME280;24368;52.156;20.788;2023-11-19T03:19:51;100864.86;;;-0.24;100.00
38612;BME280;24368;52.156;20.788;2023-11-19T03:24:52;100862.78;;;-0.28;100.00
38612;BME280;24368;52.156;20.788;2023-11-19T03:29:53;100852.83;;;-0.30;100.00
38612;BME280;24368;52.156;20.788;2023-11-19T03:34:54;100847.80;;;-0.21;100.00
38612;BME280;24368;52.156;20.788;2023-11-19T03:39:57;100835.84;;;-0.17;100.00
38612;BME280;24368;52.156;20.788;2023-11-19T03:45:00;100822.42;;;-0.20;100.00
38612;BME280;24368;52.156;20.788;2023-11-19T03:50:02;100816.83;;;-0.22;100.00
38612;BME280;24368;52.156;20.788;2023-11-19T03:55:03;100814.11;;;-0.19;100.00
38612;BME280;24368;52.156;20.788;2023-11-19T04:00:06;100802.73;;;-0.17;100.00
38612;BME280;24368;52.156;20.788;2023-11-19T04:05:11;100784.95;;;-0.08;100.00
38612;BME280;24368;52.156;20.788;2023-11-19T04:10:12;100784.43;;;0.03;100.00
38612;BME280;24368;52.156;20.788;2023-11-19T04:15:14;100770.71;;;0.07;100.00
38612;BME280;24368;52.156;20.788;2023-11-19T04:20:15;100766.45;;;0.05;100.00
38612;BME280;24368;52.156;20.788;2023-11-19T04:25:16;100754.93;;;0.11;100.00
38612;BME280;24368;52.156;20.788;2023-11-19T04:30:18;100749.17;;;0.05;100.00
38612;BME280;24368;52.156;20.788;2023-11-19T04:35:19;100744.11;;;-0.05;100.00
38612;BME280;24368;52.156;20.788;2023-11-19T04:40:20;100744.65;;;-0.09;100.00
38612;BME280;24368;52.156;20.788;2023-11-19T04:45:23;100736.58;;;-0.14;100.00
38612;BME280;24368;52.156;20.788;2023-11-19T04:55:45;100719.92;;;-0.13;100.00
38612;BME280;24368;52.156;20.788;2023-11-19T05:00:46;100711.39;;;-0.06;100.00
38612;BME280;24368;52.156;20.788;2023-11-19T05:05:47;100706.80;;;0.03;100.00
38612;BME280;24368;52.156;20.788;2023-11-19T05:10:48;100707.23;;;0.09;100.00
38612;BME280;24368;52.156;20.788;2023-11-19T05:15:50;100701.55;;;0.01;100.00
38612;BME280;24368;52.156;20.788;2023-11-19T05:20:51;100687.95;;;-0.08;100.00
38612;BME280;24368;52.156;20.788;2023-11-19T05:25:52;100681.28;;;-0.03;100.00
38612;BME280;24368;52.156;20.788;2023-11-19T05:30:53;100676.99;;;-0.07;100.00
38612;BME280;24368;52.156;20.788;2023-11-19T05:35:54;100668.89;;;-0.07;100.00
38612;BME280;24368;52.156;20.788;2023-11-19T05:40:55;100666.77;;;-0.07;100.00
38612;BME280;24368;52.156;20.788;2023-11-19T05:45:56;100666.38;;;-0.02;100.00
38612;BME280;24368;52.156;20.788;2023-11-19T05:50:57;100657.79;;;-0.00;100.00
38612;BME280;24368;52.156;20.788;2023-11-19T05:55:58;100662.91;;;0.08;100.00
38612;BME280;24368;52.156;20.788;2023-11-19T06:00:59;100659.34;;;0.10;100.00
38612;BME280;24368;52.156;20.788;2023-11-19T06:06:04;100660.58;;;0.09;100.00
38612;BME280;24368;52.156;20.788;2023-11-19T06:11:06;100660.68;;;0.01;100.00
38612;BME280;24368;52.156;20.788;2023-11-19T06:16:08;100658.84;;;-0.01;100.00
38612;BME280;24368;52.156;20.788;2023-11-19T06:21:09;100653.86;;;-0.05;100.00
38612;BME280;24368;52.156;20.788;2023-11-19T06:26:10;100641.14;;;0.00;100.00
38612;BME280;24368;52.156;20.788;2023-11-19T06:31:11;100638.45;;;0.02;100.00
38612;BME280;24368;52.156;20.788;2023-11-19T06:36:15;100625.91;;;0.03;100.00
38612;BME280;24368;52.156;20.788;2023-11-19T06:41:19;100620.30;;;0.01;100.00
38612;BME280;24368;52.156;20.788;2023-11-19T06:46:20;100614.67;;;-0.10;100.00
38612;BME280;24368;52.156;20.788;2023-11-19T06:51:21;100606.58;;;-0.12;100.00
38612;BME280;24368;52.156;20.788;2023-11-19T06:56:23;100600.09;;;-0.13;100.00
38612;BME280;24368;52.156;20.788;2023-11-19T07:01:25;100599.81;;;-0.11;100.00
38612;BME280;24368;52.156;20.788;2023-11-19T07:06:26;100591.40;;;-0.09;100.00
38612;BME280;24368;52.156;20.788;2023-11-19T07:11:27;100592.52;;;-0.07;100.00
38612;BME280;24368;52.156;20.788;2023-11-19T07:16:28;100583.60;;;0.01;100.00
38612;BME280;24368;52.156;20.788;2023-11-19T07:21:29;100576.83;;;-0.06;100.00
38612;BME280;24368;52.156;20.788;2023-11-19T07:26:30;100575.19;;;-0.04;100.00
38612;BME280;24368;52.156;20.788;2023-11-19T07:31:32;100569.71;;;0.05;100.00
38612;BME280;24368;52.156;20.788;2023-11-19T07:36:33;100563.73;;;0.03;100.00
38612;BME280;24368;52.156;20.788;2023-11-19T07:41:34;100550.79;;;0.08;100.00
38612;BME280;24368;52.156;20.788;2023-11-19T07:46:35;100543.08;;;0.13;100.00
38612;BME280;24368;52.156;20.788;2023-11-19T07:51:37;100533.34;;;0.14;100.00
38612;BME280;24368;52.156;20.788;2023-11-19T07:56:38;100530.23;;;0.17;100.00
38612;BME280;24368;52.156;20.788;2023-11-19T08:01:39;100525.60;;;0.22;100.00
38612;BME280;24368;52.156;20.788;2023-11-19T08:06:40;100521.44;;;0.26;100.00
38612;BME280;24368;52.156;20.788;2023-11-19T08:11:41;100524.48;;;0.21;100.00
38612;BME280;24368;52.156;20.788;2023-11-19T08:16:43;100519.73;;;0.22;100.00
38612;BME280;24368;52.156;20.788;2023-11-19T08:21:44;100499.89;;;0.27;100.00
38612;BME280;24368;52.156;20.788;2023-11-19T08:26:45;100486.35;;;0.31;100.00
38612;BME280;24368;52.156;20.788;2023-11-19T08:31:46;100487.55;;;0.40;100.00
38612;BME280;24368;52.156;20.788;2023-11-19T08:36:50;100481.89;;;0.39;100.00
38612;BME280;24368;52.156;20.788;2023-11-19T08:41:51;100479.85;;;0.38;100.00
38612;BME280;24368;52.156;20.788;2023-11-19T08:46:53;100475.40;;;0.43;100.00
38612;BME280;24368;52.156;20.788;2023-11-19T08:51:54;100472.93;;;0.47;100.00
38612;BME280;24368;52.156;20.788;2023-11-19T08:56:55;100464.67;;;0.46;100.00
38612;BME280;24368;52.156;20.788;2023-11-19T09:01:56;100453.63;;;0.54;100.00
38612;BME280;24368;52.156;20.788;2023-11-19T09:06:58;100441.98;;;0.52;100.00
38612;BME280;24368;52.156;20.788;2023-11-19T09:11:59;100432.71;;;0.54;100.00
38612;BME280;24368;52.156;20.788;2023-11-19T09:17:00;100414.38;;;0.56;100.00
38612;BME280;24368;52.156;20.788;2023-11-19T09:22:01;100407.70;;;0.63;100.00
38612;BME280;24368;52.156;20.788;2023-11-19T09:27:02;100409.20;;;0.61;100.00
38612;BME280;24368;52.156;20.788;2023-11-19T09:32:04;100398.90;;;0.53;100.00
38612;BME280;24368;52.156;20.788;2023-11-19T09:37:05;100395.50;;;0.46;100.00
38612;BME280;24368;52.156;20.788;2023-11-19T09:42:06;100388.70;;;0.53;100.00
38612;BME280;24368;52.156;20.788;2023-11-19T09:47:08;100383.83;;;0.53;100.00
38612;BME280;24368;52.156;20.788;2023-11-19T09:52:09;100376.98;;;0.61;100.00
38612;BME280;24368;52.156;20.788;2023-11-19T09:57:12;100368.73;;;0.56;100.00
38612;BME280;24368;52.156;20.788;2023-11-19T10:02:14;100362.41;;;0.55;100.00
38612;BME280;24368;52.156;20.788;2023-11-19T10:07:17;100344.77;;;0.60;100.00
38612;BME280;24368;52.156;20.788;2023-11-19T10:12:18;100336.16;;;0.62;100.00
38612;BME280;24368;52.156;20.788;2023-11-19T10:17:19;100330.77;;;0.62;100.00
38612;BME280;24368;52.156;20.788;2023-11-19T10:22:20;100319.15;;;0.62;100.00
38612;BME280;24368;52.156;20.788;2023-11-19T10:27:26;100319.59;;;0.55;100.00
38612;BME280;24368;52.156;20.788;2023-11-19T10:32:27;100308.75;;;0.59;100.00
38612;BME280;24368;52.156;20.788;2023-11-19T10:37:28;100300.23;;;0.59;100.00
38612;BME280;24368;52.156;20.788;2023-11-19T10:42:33;100294.36;;;0.62;100.00
38612;BME280;24368;52.156;20.788;2023-11-19T10:47:35;100280.48;;;0.56;100.00
38612;BME280;24368;52.156;20.788;2023-11-19T10:52:37;100263.07;;;0.58;100.00
38612;BME280;24368;52.156;20.788;2023-11-19T10:57:42;100250.59;;;0.61;100.00
38612;BME280;24368;52.156;20.788;2023-11-19T11:02:49;100236.48;;;0.70;100.00
38612;BME280;24368;52.156;20.788;2023-11-19T11:07:52;100225.41;;;0.73;100.00
38612;BME280;24368;52.156;20.788;2023-11-19T11:12:59;100221.75;;;0.67;100.00
38612;BME280;24368;52.156;20.788;2023-11-19T11:18:01;100207.58;;;0.53;100.00
38612;BME280;24368;52.156;20.788;2023-11-19T11:34:20;100159.99;;;0.76;100.00
38612;BME280;24368;52.156;20.788;2023-11-19T11:39:22;100148.23;;;0.84;100.00
38612;BME280;24368;52.156;20.788;2023-11-19T11:44:59;100141.32;;;0.89;100.00
38612;BME280;24368;52.156;20.788;2023-11-19T11:50:07;100131.67;;;0.83;100.00
38612;BME280;24368;52.156;20.788;2023-11-19T11:55:09;100117.89;;;0.76;100.00
38612;BME280;24368;52.156;20.788;2023-11-19T12:00:11;100112.69;;;0.70;100.00
38612;BME280;24368;52.156;20.788;2023-11-19T12:05:22;100101.65;;;0.72;100.00
38612;BME280;24368;52.156;20.788;2023-11-19T12:10:24;100091.70;;;0.76;100.00
38612;BME280;24368;52.156;20.788;2023-11-19T12:15:26;100081.86;;;0.72;100.00
38612;BME280;24368;52.156;20.788;2023-11-19T12:20:33;100079.54;;;0.73;100.00
38612;BME280;24368;52.156;20.788;2023-11-19T12:25:38;100066.00;;;0.71;100.00
38612;BME280;24368;52.156;20.788;2023-11-19T12:30:39;100057.92;;;0.78;100.00
38612;BME280;24368;52.156;20.788;2023-11-19T12:35:40;100053.69;;;0.87;100.00
38612;BME280;24368;52.156;20.788;2023-11-19T12:40:41;100056.77;;;0.85;100.00
38612;BME280;24368;52.156;20.788;2023-11-19T12:45:43;100054.85;;;0.88;100.00
38612;BME280;24368;52.156;20.788;2023-11-19T12:50:58;100058.54;;;0.89;100.00
38612;BME280;24368;52.156;20.788;2023-11-19T12:56:08;100052.73;;;0.83;100.00
38612;BME280;24368;52.156;20.788;2023-11-19T13:01:09;100040.69;;;0.76;100.00
38612;BME280;24368;52.156;20.788;2023-11-19T13:06:15;100028.89;;;0.70;100.00
38612;BME280;24368;52.156;20.788;2023-11-19T13:11:35;100010.72;;;0.67;100.00
38612;BME280;24368;52.156;20.788;2023-11-19T13:16:37;99997.02;;;0.62;100.00
38612;BME280;24368;52.156;20.788;2023-11-19T13:21:39;99976.67;;;0.66;100.00
38612;BME280;24368;52.156;20.788;2023-11-19T13:26:40;99967.67;;;0.60;100.00
38612;BME280;24368;52.156;20.788;2023-11-19T13:31:41;99960.17;;;0.64;100.00
38612;BME280;24368;52.156;20.788;2023-11-19T13:36:42;99954.09;;;0.64;100.00
38612;BME280;24368;52.156;20.788;2023-11-19T13:41:43;99943.66;;;0.59;100.00
38612;BME280;24368;52.156;20.788;2023-11-19T13:46:45;99932.16;;;0.52;100.00
38612;BME280;24368;52.156;20.788;2023-11-19T13:51:47;99924.85;;;0.53;100.00
38612;BME280;24368;52.156;20.788;2023-11-19T13:56:48;99920.09;;;0.57;100.00
38612;BME280;24368;52.156;20.788;2023-11-19T14:01:49;99914.32;;;0.62;100.00
38612;BME280;24368;52.156;20.788;2023-11-19T14:06:51;99906.27;;;0.63;100.00
38612;BME280;24368;52.156;20.788;2023-11-19T14:11:52;99906.23;;;0.66;100.00
38612;BME280;24368;52.156;20.788;2023-11-19T14:16:54;99903.40;;;0.62;100.00
38612;BME280;24368;52.156;20.788;2023-11-19T14:21:55;99898.44;;;0.61;100.00
38612;BME280;24368;52.156;20.788;2023-11-19T14:26:56;99887.89;;;0.53;100.00
38612;BME280;24368;52.156;20.788;2023-11-19T14:32:00;99882.84;;;0.53;100.00
38612;BME280;24368;52.156;20.788;2023-11-19T14:37:01;99881.01;;;0.55;100.00
38612;BME280;24368;52.156;20.788;2023-11-19T14:42:03;99877.85;;;0.56;100.00
38612;BME280;24368;52.156;20.788;2023-11-19T14:47:06;99874.98;;;0.57;100.00
38612;BME280;24368;52.156;20.788;2023-11-19T14:52:07;99875.86;;;0.54;100.00
38612;BME280;24368;52.156;20.788;2023-11-19T14:57:09;99866.40;;;0.51;100.00
38612;BME280;24368;52.156;20.788;2023-11-19T15:02:10;99856.66;;;0.43;100.00
38612;BME280;24368;52.156;20.788;2023-11-19T15:07:11;99847.45;;;0.41;100.00
38612;BME280;24368;52.156;20.788;2023-11-19T15:12:12;99834.42;;;0.44;100.00
38612;BME280;24368;52.156;20.788;2023-11-19T15:17:13;99836.65;;;0.47;100.00
38612;BME280;24368;52.156;20.788;2023-11-19T15:22:14;99842.65;;;0.51;100.00
38612;BME280;24368;52.156;20.788;2023-11-19T15:27:15;99848.58;;;0.50;100.00
38612;BME280;24368;52.156;20.788;2023-11-19T15:32:17;99849.64;;;0.50;100.00
38612;BME280;24368;52.156;20.788;2023-11-19T15:37:18;99851.05;;;0.47;100.00
38612;BME280;24368;52.156;20.788;2023-11-19T15:42:19;99852.60;;;0.47;100.00
38612;BME280;24368;52.156;20.788;2023-11-19T15:47:20;99856.60;;;0.44;100.00
38612;BME280;24368;52.156;20.788;2023-11-19T15:52:22;99853.08;;;0.45;100.00
38612;BME280;24368;52.156;20.788;2023-11-19T15:57:23;99849.58;;;0.45;100.00
38612;BME280;24368;52.156;20.788;2023-11-19T16:02:24;99831.77;;;0.47;100.00
38612;BME280;24368;52.156;20.788;2023-11-19T16:07:26;99829.68;;;0.45;100.00
38612;BME280;24368;52.156;20.788;2023-11-19T16:12:27;99825.23;;;0.37;100.00
38612;BME280;24368;52.156;20.788;2023-11-19T16:17:28;99822.09;;;0.34;100.00
38612;BME280;24368;52.156;20.788;2023-11-19T16:22:30;99820.86;;;0.37;100.00
38612;BME280;24368;52.156;20.788;2023-11-19T16:27:31;99819.45;;;0.42;100.00
38612;BME280;24368;52.156;20.788;2023-11-19T16:32:33;99814.31;;;0.47;100.00
38612;BME280;24368;52.156;20.788;2023-11-19T16:37:35;99810.24;;;0.46;100.00
38612;BME280;24368;52.156;20.788;2023-11-19T16:42:36;99806.92;;;0.38;100.00
38612;BME280;24368;52.156;20.788;2023-11-19T16:47:38;99796.41;;;0.32;100.00
38612;BME280;24368;52.156;20.788;2023-11-19T16:52:40;99792.23;;;0.38;100.00
38612;BME280;24368;52.156;20.788;2023-11-19T16:57:41;99784.63;;;0.40;100.00
38612;BME280;24368;52.156;20.788;2023-11-19T17:02:44;99778.95;;;0.39;100.00
38612;BME280;24368;52.156;20.788;2023-11-19T17:07:45;99778.05;;;0.35;100.00
38612;BME280;24368;52.156;20.788;2023-11-19T17:12:46;99770.21;;;0.33;100.00
38612;BME280;24368;52.156;20.788;2023-11-19T17:17:49;99763.55;;;0.29;100.00
38612;BME280;24368;52.156;20.788;2023-11-19T17:22:50;99764.19;;;0.30;100.00
38612;BME280;24368;52.156;20.788;2023-11-19T17:27:51;99762.94;;;0.33;100.00
38612;BME280;24368;52.156;20.788;2023-11-19T17:32:52;99760.04;;;0.37;100.00
38612;BME280;24368;52.156;20.788;2023-11-19T17:37:53;99757.05;;;0.40;100.00
38612;BME280;24368;52.156;20.788;2023-11-19T17:42:54;99743.09;;;0.39;100.00
38612;BME280;24368;52.156;20.788;2023-11-19T17:47:55;99738.62;;;0.36;100.00
38612;BME280;24368;52.156;20.788;2023-11-19T17:52:56;99732.20;;;0.31;100.00
38612;BME280;24368;52.156;20.788;2023-11-19T17:57:57;99725.16;;;0.28;100.00
38612;BME280;24368;52.156;20.788;2023-11-19T18:02:59;99729.39;;;0.27;100.00
38612;BME280;24368;52.156;20.788;2023-11-19T18:08:00;99727.27;;;0.32;100.00
38612;BME280;24368;52.156;20.788;2023-11-19T18:13:02;99731.12;;;0.37;100.00
38612;BME280;24368;52.156;20.788;2023-11-19T18:18:04;99720.02;;;0.34;100.00
38612;BME280;24368;52.156;20.788;2023-11-19T18:23:05;99711.21;;;0.29;100.00
38612;BME280;24368;52.156;20.788;2023-11-19T18:28:06;99702.30;;;0.25;100.00
38612;BME280;24368;52.156;20.788;2023-11-19T18:33:07;99692.73;;;0.23;100.00
38612;BME280;24368;52.156;20.788;2023-11-19T18:38:09;99690.88;;;0.27;100.00
38612;BME280;24368;52.156;20.788;2023-11-19T18:43:10;99685.98;;;0.31;100.00
38612;BME280;24368;52.156;20.788;2023-11-19T18:48:12;99678.81;;;0.37;100.00
38612;BME280;24368;52.156;20.788;2023-11-19T18:53:13;99670.31;;;0.37;100.00
38612;BME280;24368;52.156;20.788;2023-11-19T18:58:14;99666.88;;;0.34;100.00
38612;BME280;24368;52.156;20.788;2023-11-19T19:03:16;99665.46;;;0.34;100.00
38612;BME280;24368;52.156;20.788;2023-11-19T19:08:22;99662.70;;;0.32;100.00
38612;BME280;24368;52.156;20.788;2023-11-19T19:13:23;99652.99;;;0.34;100.00
38612;BME280;24368;52.156;20.788;2023-11-19T19:18:24;99653.33;;;0.42;100.00
38612;BME280;24368;52.156;20.788;2023-11-19T19:23:25;99654.60;;;0.46;100.00
38612;BME280;24368;52.156;20.788;2023-11-19T19:28:26;99647.07;;;0.42;100.00
38612;BME280;24368;52.156;20.788;2023-11-19T19:33:27;99639.94;;;0.45;100.00
38612;BME280;24368;52.156;20.788;2023-11-19T19:38:28;99640.28;;;0.40;100.00
38612;BME280;24368;52.156;20.788;2023-11-19T19:43:30;99637.13;;;0.41;100.00
38612;BME280;24368;52.156;20.788;2023-11-19T19:48:31;99637.05;;;0.41;100.00
38612;BME280;24368;52.156;20.788;2023-11-19T19:53:33;99631.16;;;0.44;100.00
38612;BME280;24368;52.156;20.788;2023-11-19T19:58:35;99615.59;;;0.48;100.00
38612;BME280;24368;52.156;20.788;2023-11-19T20:03:36;99608.96;;;0.49;100.00
38612;BME280;24368;52.156;20.788;2023-11-19T20:08:38;99600.45;;;0.47;100.00
38612;BME280;24368;52.156;20.788;2023-11-19T20:13:39;99594.63;;;0.41;100.00
38612;BME280;24368;52.156;20.788;2023-11-19T20:18:40;99589.39;;;0.41;100.00
38612;BME280;24368;52.156;20.788;2023-11-19T20:23:41;99593.67;;;0.44;100.00
38612;BME280;24368;52.156;20.788;2023-11-19T20:28:42;99589.55;;;0.49;100.00
38612;BME280;24368;52.156;20.788;2023-11-19T20:33:45;99587.30;;;0.54;100.00
38612;BME280;24368;52.156;20.788;2023-11-19T20:38:46;99593.77;;;0.51;100.00
38612;BME280;24368;52.156;20.788;2023-11-19T20:43:47;99594.23;;;0.51;100.00
38612;BME280;24368;52.156;20.788;2023-11-19T20:48:48;99588.35;;;0.49;100.00
38612;BME280;24368;52.156;20.788;2023-11-19T20:53:49;99573.65;;;0.43;100.00
38612;BME280;24368;52.156;20.788;2023-11-19T20:58:52;99572.92;;;0.46;100.00
38612;BME280;24368;52.156;20.788;2023-11-19T21:03:54;99569.26;;;0.54;100.00
38612;BME280;24368;52.156;20.788;2023-11-19T21:08:56;99568.34;;;0.57;100.00
38612;BME280;24368;52.156;20.788;2023-11-19T21:13:57;99565.66;;;0.61;100.00
38612;BME280;24368;52.156;20.788;2023-11-19T21:18:58;99561.25;;;0.55;100.00
38612;BME280;24368;52.156;20.788;2023-11-19T21:23:59;99560.93;;;0.49;100.00
38612;BME280;24368;52.156;20.788;2023-11-19T21:29:01;99558.05;;;0.48;100.00
38612;BME280;24368;52.156;20.788;2023-11-19T21:34:02;99555.58;;;0.51;100.00
38612;BME280;24368;52.156;20.788;2023-11-19T21:39:03;99547.79;;;0.56;100.00
38612;BME280;24368;52.156;20.788;2023-11-19T21:44:06;99539.83;;;0.61;100.00
38612;BME280;24368;52.156;20.788;2023-11-19T21:49:08;99537.77;;;0.67;100.00
38612;BME280;24368;52.156;20.788;2023-11-19T21:54:09;99531.55;;;0.67;100.00
38612;BME280;24368;52.156;20.788;2023-11-19T21:59:10;99533.45;;;0.63;100.00
38612;BME280;24368;52.156;20.788;2023-11-19T22:04:13;99526.27;;;0.64;100.00
38612;BME280;24368;52.156;20.788;2023-11-19T22:09:14;99530.33;;;0.65;100.00
38612;BME280;24368;52.156;20.788;2023-11-19T22:14:16;99522.01;;;0.65;100.00
38612;BME280;24368;52.156;20.788;2023-11-19T22:19:17;99506.63;;;0.62;100.00
38612;BME280;24368;52.156;20.788;2023-11-19T22:24:18;99496.55;;;0.62;100.00
38612;BME280;24368;52.156;20.788;2023-11-19T22:29:19;99503.21;;;0.59;100.00
38612;BME280;24368;52.156;20.788;2023-11-19T22:34:21;99505.80;;;0.64;100.00
38612;BME280;24368;52.156;20.788;2023-11-19T22:39:22;99502.20;;;0.70;100.00
38612;BME280;24368;52.156;20.788;2023-11-19T22:44:23;99483.37;;;0.77;100.00
38612;BME280;24368;52.156;20.788;2023-11-19T22:49:24;99482.22;;;0.79;100.00
38612;BME280;24368;52.156;20.788;2023-11-19T22:54:25;99486.71;;;0.73;100.00
38612;BME280;24368;52.156;20.788;2023-11-19T22:59:26;99489.54;;;0.70;100.00
38612;BME280;24368;52.156;20.788;2023-11-19T23:04:28;99492.42;;;0.74;100.00
38612;BME280;24368;52.156;20.788;2023-11-19T23:09:29;99483.02;;;0.77;100.00
38612;BME280;24368;52.156;20.788;2023-11-19T23:14:30;99478.80;;;0.78;100.00
38612;BME280;24368;52.156;20.788;2023-11-19T23:19:34;99483.69;;;0.72;100.00
38612;BME280;24368;52.156;20.788;2023-11-19T23:24:36;99478.16;;;0.65;100.00
38612;BME280;24368;52.156;20.788;2023-11-19T23:29:37;99475.85;;;0.61;100.00
38612;BME280;24368;52.156;20.788;2023-11-19T23:34:38;99481.12;;;0.67;100.00
38612;BME280;24368;52.156;20.788;2023-11-19T23:39:39;99475.40;;;0.72;100.00
38612;BME280;24368;52.156;20.788;2023-11-19T23:44:40;99468.09;;;0.75;100.00
38612;BME280;24368;52.156;20.788;2023-11-19T23:49:41;99468.24;;;0.80;100.00
38612;BME280;24368;52.156;20.788;2023-11-19T23:54:43;99465.55;;;0.79;100.00
38612;BME280;24368;52.156;20.788;2023-11-19T23:59:44;99474.63;;;0.70;100.00
